Centerdale, Iowa
Current Conditions -  °F | °C
As of 6:52 AM on Thursday 27 Nov 2014 (Local Time) from KIOW Reporting Station
Overcast Overcast  
Wind Chill: -16°   Ceiling: 3300
Heat Index: -8°   Visibility: 9mi
Dew Point: -11°   Wind: 17mph
Humidity: 81%   Direction: 320°NW
Pressure: 30.44"   Gusts: 24mph
Location:  41.5542°N, 91.2913°W
Report Text: KIOW 271252Z AUTO 32015G21KT 9SM FEW015 OVC033 M08/M11 A3044 RMK AO2 SLP319 T10781106
Loading
Personal Weather Stations






























Interactive Weather Map New forecast layout! Learn more

10-Day Weather Forecast

Advertisements
Track Severe Weather on mobile